Hauptseite
METAR-TAF:

METAR-TAF

Flughäfen :

Flughafen Lugano-Agno

Lugano, Schweiz

Breite: 46-00N, Länge: 008-58E, Höhe: 273 m

Beobachtung

Neuester Wetterbericht von vor 29 Minuten, um 03:20 UTC
Wind 2 kt aus Nord/Nordost
Temperatur 16°C
Luftfeuchtigkeit 100%
Luftdruck 1020 hPa
Sichtweite: 4300 m
feuchter Dunst

METAR: LSZA 190320Z AUTO 02002KT 4300 BR NCD 16/16 Q1020

Zeit: 05:49 (03:49 UTC)

Prognose

Neuester Wetterbericht von vor 1 Stunde und 24 Minuten, um 02:25 UTC
Gültige Prognose vom 19 um 03 UTC bis 19 um 12 UTC
Wind 3 kt aus unterschiedlichen Richtungen
Sichtweite: 9000 m
Leicht bewölkt in der Höhe von 4000 ft
Wahrscheinlichkeit 40%
vom 19 um 03 UTC bis 19 um 07 UTC
Sichtweite: 4000 m
feuchter Dunst

TAF: LSZA 190225Z 1903/1912 VRB03KT 9000 FEW040 PROB40 1903/1907 4000 BR

Wetterbeobachtungen und Prognosen von mehr als 4000 Flughäfen (METAR und TAF Bericht).

Die verfügbaren Stationen werden durch gelbe und rote Markierungen auf der Karte dargestellt.

Führen Sie die Maus auf sie, um den Namen der Station zu sehen.

Darauf klicken, um die Beobachtung von Wetterbeobachtungen und Prognosen zu sehen.

Um die Karte zu ändern : klicken Sie auf den grünen Tasten mit einem schwarzen Kreuz Zum Vergrößern, auf den grünen Button mit einem Gedankenstrich zu verkleinern, oder auf die grünen Pfeile für benachbarte Karten.


METAR-TAF: